Kingstree, South Carolina
Current Conditions -  °F | °C
As of 12:35 PM on Sunday 23 Nov 2014 (Local Time) from KCKI Reporting Station
Light Rain Light Rain  
Wind Chill: 63°   Ceiling: 900
Heat Index: 63°   Visibility: 10mi
Dew Point: 63°   Wind: 9mph
Humidity: 100%   Direction: 90°E
Pressure: 30.03"   Gusts: 18mph
Location:  33.67°N, 79.83°W
Report Text: KCKI 231735Z AUTO 09008G16KT 10SM -RA OVC009 17/17 A3003 RMK AO2 P0001
Loading
Personal Weather Stations






























Interactive Weather Map New forecast layout! Learn more

10-Day Weather Forecast

Advertisements
Track Severe Weather on mobile